You are not logged in, Click here to log in
Ørsta-沃爾達機場 HOV / ENOV Norway
ICAO: ENOV Country: Norway
Latitude: 62.18 Longitude: 6.0741
Total Arrivals: 3 Total Departures: 2
Latest Arrival: SV565 (OMDB-ENOV)Stone. Chang Latest Departure: WF165 (ENOV-ENBR)Stone. Chang
Scenery: http://forums.x-plane.org/index.php?%2Ffiles%2Ffile%2F37487-enov-%C3%B8rsta-volda-airport-custom-hd-airport%2F
METAR : ENOV 092050Z VRB04KT 9999 VCSH FEW012 SCT020 BKN028 M01/M02 Q1007 RESHSN RMK WIND 2175FT 02009KT

Ørsta-沃爾達機場 HOV

You are accessing this site from IP address 35.170.81.210. Virtual Airline. CMS by phpVMS.Website designed by Zumeweb and edited by Theo Bearman.
There is 0 User(s) Online: | and 8 Guest(s) Online.
All information on this site is for fight simulation purposes only. This site is for flight logging for pilots of Virtual Airline&模擬飛行論壇 FlySim only.